createdAt,value
2022-08-29T00:00:27.004Z,99482.02
2022-08-29T00:01:32.275Z,99469.51
2022-08-29T00:02:36.871Z,99479.32
2022-08-29T00:03:42.102Z,99479.48
2022-08-29T00:04:46.666Z,99478.48
2022-08-29T00:05:50.093Z,99481.19
2022-08-29T00:06:53.330Z,99481.19
2022-08-29T00:07:55.943Z,99483.89
2022-08-29T00:08:58.100Z,99480.32
2022-08-29T00:10:00.348Z,99483.89
2022-08-29T00:11:02.496Z,99481.19
2022-08-29T00:12:06.213Z,99478.33
2022-08-29T00:13:09.217Z,99481.03
2022-08-29T00:14:23.545Z,99492.68
2022-08-29T00:15:15.898Z,99484.56
2022-08-29T00:16:18.835Z,99482.70
2022-08-29T00:17:21.365Z,99478.16
2022-08-29T00:18:24.121Z,99473.75
2022-08-29T00:19:26.964Z,99476.45
2022-08-29T00:20:34.519Z,99482.70
2022-08-29T00:21:36.955Z,99476.30
2022-08-29T00:22:39.950Z,99479.00
2022-08-29T00:23:45.985Z,99477.17
2022-08-29T00:24:48.191Z,99471.76
2022-08-29T00:25:50.479Z,99491.52
2022-08-29T00:26:53.004Z,99472.59
2022-08-29T00:27:55.630Z,99477.17
2022-08-29T00:28:57.910Z,99471.76
2022-08-29T00:30:00.463Z,99474.47
2022-08-29T00:31:03.497Z,99476.17
2022-08-29T00:32:06.202Z,99472.59
2022-08-29T00:33:08.621Z,99476.17
2022-08-29T00:34:11.020Z,99475.30
2022-08-29T00:35:16.607Z,99473.47
2022-08-29T00:36:19.639Z,99474.47
2022-08-29T00:37:24.163Z,99471.76
2022-08-29T00:38:27.982Z,99468.19
2022-08-29T00:39:32.573Z,99472.75
2022-08-29T00:40:38.008Z,99470.05
2022-08-29T00:41:40.985Z,99478.16
2022-08-29T00:42:44.459Z,99482.70
2022-08-29T00:43:46.608Z,99489.97
2022-08-29T00:44:48.852Z,99482.70
2022-08-29T00:46:10.372Z,99485.41
2022-08-29T00:47:12.676Z,99474.59
2022-08-29T00:48:16.072Z,99472.92
2022-08-29T00:49:25.035Z,99471.21
2022-08-29T00:50:32.051Z,99468.67
2022-08-29T00:51:34.552Z,99463.27
2022-08-29T00:52:42.501Z,99465.97
2022-08-29T00:53:45.593Z,99460.56
2022-08-29T00:54:50.688Z,99460.56
2022-08-29T00:55:52.965Z,99466.96
2022-08-29T00:56:55.930Z,99459.85
2022-08-29T00:58:18.686Z,99459.02
2022-08-29T00:59:27.710Z,99460.02
2022-08-29T01:00:30.348Z,99455.47
2022-08-29T01:01:33.921Z,99456.47
2022-08-29T01:02:40.347Z,99456.47
2022-08-29T01:03:42.968Z,99455.63
2022-08-29T01:04:44.547Z,99453.77
2022-08-29T01:05:46.781Z,99445.82
2022-08-29T01:06:49.331Z,99452.06
2022-08-29T01:07:51.717Z,99444.82
2022-08-29T01:08:57.204Z,99454.77
2022-08-29T01:09:58.494Z,99456.62
2022-08-29T01:11:00.748Z,99451.23
2022-08-29T01:12:03.447Z,99452.06
2022-08-29T01:13:07.702Z,99443.95
2022-08-29T01:14:09.969Z,99446.66
2022-08-29T01:15:12.327Z,99446.66
2022-08-29T01:16:15.397Z,99447.66
2022-08-29T01:17:21.765Z,99450.23
2022-08-29T01:18:24.253Z,99454.77
2022-08-29T01:19:42.923Z,99442.13
2022-08-29T01:21:04.219Z,99448.52
2022-08-29T01:22:30.600Z,99444.95
2022-08-29T01:23:56.319Z,99447.66
2022-08-29T01:24:58.587Z,99448.69
2022-08-29T01:26:00.976Z,99447.97
2022-08-29T01:27:03.331Z,99441.73
2022-08-29T01:28:11.600Z,99444.44
2022-08-29T01:29:14.603Z,99443.72
2022-08-29T01:30:18.579Z,99448.13
2022-08-29T01:31:38.625Z,99443.72
2022-08-29T01:32:28.611Z,99450.00
2022-08-29T01:33:45.560Z,99445.59
2022-08-29T01:34:47.839Z,99446.43
2022-08-29T01:35:50.357Z,99445.59
2022-08-29T01:36:55.095Z,99446.43
2022-08-29T01:37:57.444Z,99450.16
2022-08-29T01:38:59.801Z,99442.05
2022-08-29T01:40:03.903Z,99448.30
2022-08-29T01:41:06.331Z,99446.59
2022-08-29T01:42:17.248Z,99440.19
2022-08-29T01:43:20.231Z,99448.30
2022-08-29T01:44:22.735Z,99442.89
2022-08-29T01:45:25.553Z,99443.72
2022-08-29T01:46:30.820Z,99438.32
2022-08-29T01:47:34.195Z,99441.02
2022-08-29T01:49:50.774Z,99437.23
2022-08-29T01:50:53.068Z,99434.78
2022-08-29T01:51:55.202Z,99431.24
2022-08-29T01:52:57.402Z,99429.37
2022-08-29T01:53:59.561Z,99438.32
2022-08-29T01:55:01.824Z,99434.78
2022-08-29T01:56:15.958Z,99428.38
2022-08-29T01:57:18.373Z,99432.91
2022-08-29T01:58:20.728Z,99436.48
2022-08-29T01:59:24.609Z,99437.32
2022-08-29T02:00:28.433Z,99431.08
2022-08-29T02:01:34.380Z,99438.32
2022-08-29T02:02:37.024Z,99435.62
2022-08-29T02:03:40.860Z,99433.78
2022-08-29T02:04:44.320Z,99434.78
2022-08-29T02:05:46.611Z,99437.48
2022-08-29T02:06:49.931Z,99438.48
2022-08-29T02:07:53.271Z,99439.35
2022-08-29T02:08:55.467Z,99442.05
2022-08-29T02:09:57.615Z,99441.02
2022-08-29T02:11:00.042Z,99439.35
2022-08-29T02:12:02.924Z,99436.48
2022-08-29T02:13:05.122Z,99442.89
2022-08-29T02:14:07.501Z,99441.89
2022-08-29T02:15:12.768Z,99442.73
2022-08-29T02:16:17.614Z,99444.59
2022-08-29T02:17:20.470Z,99444.59
2022-08-29T02:18:23.868Z,99441.02
2022-08-29T02:19:26.684Z,99438.32
2022-08-29T02:20:30.900Z,99441.02
2022-08-29T02:21:33.169Z,99438.32
2022-08-29T02:22:37.016Z,99438.32
2022-08-29T02:23:39.525Z,99444.59
2022-08-29T02:24:41.831Z,99440.19
2022-08-29T02:25:44.186Z,99439.19
2022-08-29T02:26:46.546Z,99436.64
2022-08-29T02:27:48.785Z,99436.64
2022-08-29T02:28:51.230Z,99440.19
2022-08-29T02:29:54.128Z,99436.64
2022-08-29T02:30:56.999Z,99440.19
2022-08-29T02:31:59.445Z,99441.02
2022-08-29T02:33:01.598Z,99441.89
2022-08-29T02:34:06.793Z,99436.48
2022-08-29T02:35:09.299Z,99444.59
2022-08-29T02:36:16.287Z,99441.02
2022-08-29T02:37:20.482Z,99441.89
2022-08-29T02:38:22.854Z,99446.27
2022-08-29T02:39:25.320Z,99445.43
2022-08-29T02:40:31.832Z,99442.73
2022-08-29T02:41:32.358Z,99441.89
2022-08-29T02:42:34.851Z,99443.72
2022-08-29T02:43:37.848Z,99450.00
2022-08-29T02:44:40.273Z,99450.84
2022-08-29T02:45:43.497Z,99460.81
2022-08-29T02:46:46.113Z,99459.78
2022-08-29T02:47:48.831Z,99452.70
2022-08-29T02:48:59.978Z,99452.70
2022-08-29T02:49:55.344Z,99460.81
2022-08-29T02:50:57.912Z,99457.23
2022-08-29T02:52:00.158Z,99457.23
2022-08-29T02:53:02.327Z,99467.05
2022-08-29T02:54:05.072Z,99453.54
2022-08-29T02:55:08.552Z,99457.23
2022-08-29T02:56:14.345Z,99469.76
2022-08-29T02:57:15.394Z,99454.38
2022-08-29T02:58:18.524Z,99460.81
2022-08-29T02:59:20.757Z,99464.35
2022-08-29T03:00:25.965Z,99466.05
2022-08-29T03:01:28.706Z,99460.66
2022-08-29T03:02:31.210Z,99463.36
2022-08-29T03:03:33.474Z,99465.19
2022-08-29T03:04:35.641Z,99458.95
2022-08-29T03:05:38.418Z,99463.36
2022-08-29T03:06:40.987Z,99466.89
2022-08-29T03:07:45.978Z,99473.30
2022-08-29T03:08:48.386Z,99465.19
2022-08-29T03:09:51.383Z,99462.48
2022-08-29T03:10:53.821Z,99463.36
2022-08-29T03:11:56.657Z,99463.36
2022-08-29T03:12:59.041Z,99460.66
2022-08-29T03:14:01.771Z,99462.48
2022-08-29T03:15:05.703Z,99466.89
2022-08-29T03:16:08.228Z,99464.19
2022-08-29T03:17:10.541Z,99462.48
2022-08-29T03:18:13.751Z,99463.52
2022-08-29T03:19:16.060Z,99476.00
2022-08-29T03:20:20.908Z,99476.00
2022-08-29T03:21:24.672Z,99466.22
2022-08-29T03:22:27.056Z,99470.75
2022-08-29T03:23:30.430Z,99474.33
2022-08-29T03:24:35.194Z,99468.20
2022-08-29T03:25:37.640Z,99467.37
2022-08-29T03:26:39.894Z,99470.08
2022-08-29T03:27:42.232Z,99466.50
2022-08-29T03:28:44.374Z,99470.23
2022-08-29T03:29:46.625Z,99469.36
2022-08-29T03:30:49.086Z,99472.06
2022-08-29T03:31:51.598Z,99469.52
2022-08-29T03:32:54.011Z,99463.28
2022-08-29T03:33:56.618Z,99470.55
2022-08-29T03:34:59.235Z,99475.95
2022-08-29T03:36:02.679Z,99471.55
2022-08-29T03:37:06.605Z,99473.38
2022-08-29T03:38:10.568Z,99480.66
2022-08-29T03:39:13.115Z,99482.52
2022-08-29T03:40:16.443Z,99473.55
2022-08-29T03:41:24.082Z,99473.55
2022-08-29T03:42:26.500Z,99474.41
2022-08-29T03:43:29.643Z,99475.41
2022-08-29T03:45:48.496Z,99477.86
2022-08-29T03:46:50.865Z,99485.22
2022-08-29T03:47:54.170Z,99487.05
2022-08-29T03:48:56.458Z,99480.81
2022-08-29T03:49:58.698Z,99488.76
2022-08-29T03:51:00.933Z,99486.05
2022-08-29T03:52:04.948Z,99482.52
2022-08-29T03:53:07.295Z,99485.06
2022-08-29T03:54:09.515Z,99488.60
2022-08-29T03:55:13.152Z,99482.20
2022-08-29T03:56:18.432Z,99484.06
2022-08-29T03:57:21.307Z,99485.73
2022-08-29T03:58:23.756Z,99485.73
2022-08-29T03:59:26.024Z,99487.45
2022-08-29T04:00:28.576Z,99491.14
2022-08-29T04:01:31.799Z,99487.45
2022-08-29T04:02:34.174Z,99491.85
2022-08-29T04:03:36.715Z,99485.58
2022-08-29T04:04:38.869Z,99488.13
2022-08-29T04:05:41.785Z,99489.16
2022-08-29T04:06:44.706Z,99484.59
2022-08-29T04:07:56.029Z,99483.59
2022-08-29T04:08:58.220Z,99491.70
2022-08-29T04:10:03.760Z,99490.83
2022-08-29T04:11:11.148Z,99489.16
2022-08-29T04:12:13.851Z,99483.75
2022-08-29T04:13:16.245Z,99482.87
2022-08-29T04:14:18.668Z,99489.99
2022-08-29T04:15:21.805Z,99485.73
2022-08-29T04:16:30.613Z,99489.31
2022-08-29T04:17:30.023Z,99491.14
2022-08-29T04:18:32.413Z,99493.84
2022-08-29T04:19:34.673Z,99490.30
2022-08-29T04:20:39.258Z,99488.60
2022-08-29T04:21:41.874Z,99492.17
2022-08-29T04:22:44.240Z,99486.77
2022-08-29T04:23:46.471Z,99491.30
2022-08-29T04:24:50.519Z,99495.87
2022-08-29T04:26:07.255Z,99493.17
2022-08-29T04:26:57.559Z,99492.30
2022-08-29T04:28:00.880Z,99491.46
2022-08-29T04:29:04.365Z,99496.86
2022-08-29T04:30:09.773Z,99496.86
2022-08-29T04:31:13.824Z,99492.30
2022-08-29T04:32:17.281Z,99495.00
2022-08-29T04:33:22.494Z,99491.46
2022-08-29T04:34:24.938Z,99500.56
2022-08-29T04:35:27.714Z,99501.44
2022-08-29T04:36:30.586Z,99492.45
2022-08-29T04:37:34.215Z,99494.16
2022-08-29T04:38:36.578Z,99500.41
2022-08-29T04:39:38.801Z,99502.27
2022-08-29T04:40:43.050Z,99499.57
2022-08-29T04:41:45.861Z,99495.16
2022-08-29T04:42:48.489Z,99500.56
2022-08-29T04:43:50.647Z,99497.02
2022-08-29T04:44:52.831Z,99498.89
2022-08-29T04:45:55.853Z,99500.56
2022-08-29T04:46:58.868Z,99498.89
2022-08-29T04:48:03.789Z,99497.02
2022-08-29T04:49:06.614Z,99504.30
2022-08-29T04:50:11.302Z,99505.97
2022-08-29T04:51:14.525Z,99500.72
2022-08-29T04:52:16.848Z,99501.59
2022-08-29T04:53:20.041Z,99502.43
2022-08-29T04:54:22.276Z,99509.70
2022-08-29T04:55:25.948Z,99501.59
2022-08-29T04:56:28.518Z,99504.30
2022-08-29T04:57:33.825Z,99498.89
2022-08-29T04:58:37.478Z,99504.30
2022-08-29T04:59:42.161Z,99503.27
2022-08-29T05:00:44.963Z,99498.89
2022-08-29T05:01:47.319Z,99500.56
2022-08-29T05:02:49.732Z,99496.19
2022-08-29T05:03:52.042Z,99502.43
2022-08-29T05:04:54.440Z,99499.88
2022-08-29T05:06:01.438Z,99509.70
2022-08-29T05:07:03.785Z,99503.42
2022-08-29T05:08:06.055Z,99507.13
2022-08-29T05:09:08.195Z,99504.42
2022-08-29T05:10:15.687Z,99510.69
2022-08-29T05:11:22.772Z,99512.53
2022-08-29T05:12:22.625Z,99509.82
2022-08-29T05:13:24.848Z,99511.69
2022-08-29T05:14:27.128Z,99512.53
2022-08-29T05:15:29.377Z,99511.69
2022-08-29T05:16:33.056Z,99510.85
2022-08-29T05:17:35.440Z,99507.13
2022-08-29T05:18:37.795Z,99506.28
2022-08-29T05:19:44.908Z,99507.28
2022-08-29T05:20:47.274Z,99508.98
2022-08-29T05:21:49.732Z,99506.44
2022-08-29T05:22:52.718Z,99501.03
2022-08-29T05:23:55.482Z,99499.17
2022-08-29T05:24:57.663Z,99507.28
2022-08-29T05:26:01.648Z,99505.61
2022-08-29T05:27:08.601Z,99504.58
2022-08-29T05:28:12.233Z,99498.34
2022-08-29T05:29:14.908Z,99497.50
2022-08-29T05:30:34.009Z,99501.88
2022-08-29T05:31:21.868Z,99494.80
2022-08-29T05:32:24.854Z,99494.80
2022-08-29T05:33:27.295Z,99497.50
2022-08-29T05:34:34.191Z,99497.50
2022-08-29T05:35:34.199Z,99504.73
2022-08-29T05:36:36.962Z,99502.03
2022-08-29T05:37:39.955Z,99496.63
2022-08-29T05:38:42.112Z,99495.80
2022-08-29T05:39:44.647Z,99493.09
2022-08-29T05:40:47.552Z,99501.20
2022-08-29T05:41:51.029Z,99500.33
2022-08-29T05:42:55.136Z,99501.20
2022-08-29T05:43:58.356Z,99497.63
2022-08-29T05:45:01.911Z,99497.63
2022-08-29T05:46:06.031Z,99506.60
2022-08-29T05:47:10.110Z,99495.80
2022-08-29T05:48:13.849Z,99501.20
2022-08-29T05:49:16.962Z,99500.20
2022-08-29T05:50:19.550Z,99499.33
2022-08-29T05:51:21.824Z,99501.03
2022-08-29T05:52:24.389Z,99494.80
2022-08-29T05:53:26.734Z,99494.80
2022-08-29T05:54:30.091Z,99493.77
2022-08-29T05:55:32.896Z,99506.44
2022-08-29T05:56:36.283Z,99497.50
2022-08-29T05:57:39.571Z,99506.44
2022-08-29T05:58:42.237Z,99498.34
2022-08-29T05:59:45.709Z,99499.33
2022-08-29T06:00:48.331Z,99494.80
2022-08-29T06:01:51.736Z,99499.33
2022-08-29T06:02:53.925Z,99501.20
2022-08-29T06:03:56.402Z,99504.73
2022-08-29T06:04:59.573Z,99506.60
2022-08-29T06:06:01.912Z,99501.20
2022-08-29T06:07:04.594Z,99503.03
2022-08-29T06:08:07.559Z,99503.03
2022-08-29T06:09:13.021Z,99498.49
2022-08-29T06:10:17.349Z,99498.49
2022-08-29T06:12:34.098Z,99499.25
2022-08-29T06:13:37.196Z,99502.19
2022-08-29T06:14:41.290Z,99506.91
2022-08-29T06:15:45.860Z,99504.38
2022-08-29T06:16:48.884Z,99502.66
2022-08-29T06:17:51.153Z,99509.77
2022-08-29T06:18:54.254Z,99503.50
2022-08-29T06:19:57.103Z,99507.07
2022-08-29T06:21:01.716Z,99506.20
2022-08-29T06:22:09.544Z,99502.66
2022-08-29T06:23:09.235Z,99501.79
2022-08-29T06:24:11.428Z,99510.52
2022-08-29T06:25:37.359Z,99510.03
2022-08-29T06:26:19.846Z,99512.55
2022-08-29T06:27:21.953Z,99510.33
2022-08-29T06:28:26.706Z,99508.52
2022-08-29T06:29:29.094Z,99508.30
2022-08-29T06:30:32.599Z,99515.98
2022-08-29T06:31:34.991Z,99508.19
2022-08-29T06:32:37.136Z,99505.64
2022-08-29T06:33:40.014Z,99510.89
2022-08-29T06:34:42.591Z,99517.88
2022-08-29T06:35:44.851Z,99516.17
2022-08-29T06:36:47.310Z,99521.16
2022-08-29T06:37:49.431Z,99514.65
2022-08-29T06:38:52.627Z,99515.22
2022-08-29T06:39:55.145Z,99521.20
2022-08-29T06:42:15.431Z,99515.09
2022-08-29T06:43:17.486Z,99521.80
2022-08-29T06:44:19.629Z,99513.28
2022-08-29T06:45:22.906Z,99521.67
2022-08-29T06:46:32.388Z,99509.87
2022-08-29T06:47:36.346Z,99515.98
2022-08-29T06:48:39.057Z,99517.25
2022-08-29T06:49:41.465Z,99516.80
2022-08-29T06:50:45.679Z,99518.94
2022-08-29T06:51:49.427Z,99517.49
2022-08-29T06:52:52.130Z,99517.20
2022-08-29T06:53:57.256Z,99523.73
2022-08-29T06:55:00.365Z,99519.63
2022-08-29T06:56:05.347Z,99521.93
2022-08-29T06:57:07.783Z,99523.22
2022-08-29T06:58:10.958Z,99525.04
2022-08-29T06:59:13.272Z,99525.04
2022-08-29T07:00:21.674Z,99524.89
2022-08-29T07:01:22.393Z,99528.16
2022-08-29T07:02:25.570Z,99522.62
2022-08-29T07:03:28.637Z,99531.55
2022-08-29T07:04:31.247Z,99527.02
2022-08-29T07:05:34.982Z,99521.63
2022-08-29T07:06:37.487Z,99527.41
2022-08-29T07:07:39.623Z,99522.44
2022-08-29T07:08:55.939Z,99521.00
2022-08-29T07:09:46.502Z,99523.28
2022-08-29T07:10:49.352Z,99527.80
2022-08-29T07:11:51.676Z,99522.41
2022-08-29T07:12:54.176Z,99521.42
2022-08-29T07:13:57.644Z,99522.41
2022-08-29T07:15:00.374Z,99517.20
2022-08-29T07:16:03.234Z,99517.20
2022-08-29T07:17:06.083Z,99526.73
2022-08-29T07:18:08.695Z,99525.16
2022-08-29T07:19:10.975Z,99524.48
2022-08-29T07:20:14.442Z,99522.92
2022-08-29T07:21:20.744Z,99523.91
2022-08-29T07:22:22.079Z,99526.75
2022-08-29T07:23:24.256Z,99524.34
2022-08-29T07:24:27.926Z,99523.63
2022-08-29T07:25:30.522Z,99521.66
2022-08-29T07:26:36.729Z,99533.85
2022-08-29T07:27:39.130Z,99530.71
2022-08-29T07:28:45.712Z,99527.72
2022-08-29T07:29:50.484Z,99530.41
2022-08-29T07:30:50.365Z,99530.41
2022-08-29T07:31:53.088Z,99532.12
2022-08-29T07:32:55.351Z,99529.42
2022-08-29T07:34:02.838Z,99534.25
2022-08-29T07:35:02.627Z,99529.72
2022-08-29T07:36:05.965Z,99529.42
2022-08-29T07:37:10.184Z,99536.91
2022-08-29T07:38:12.813Z,99533.95
2022-08-29T07:39:16.720Z,99538.90
2022-08-29T07:40:20.721Z,99530.09
2022-08-29T07:41:23.005Z,99534.94
2022-08-29T07:42:25.363Z,99525.86
2022-08-29T07:43:29.022Z,99526.25
2022-08-29T07:44:34.658Z,99523.97
2022-08-29T07:45:39.241Z,99531.61
2022-08-29T07:46:41.873Z,99527.50
2022-08-29T07:47:45.516Z,99530.08
2022-08-29T07:48:48.866Z,99527.38
2022-08-29T07:49:51.180Z,99524.95
2022-08-29T07:50:54.025Z,99526.97
2022-08-29T07:51:58.209Z,99527.12
2022-08-29T07:53:01.654Z,99527.12
2022-08-29T07:54:04.690Z,99524.42
2022-08-29T07:55:08.236Z,99530.35
2022-08-29T07:56:13.586Z,99525.52
2022-08-29T07:57:17.507Z,99526.92
2022-08-29T07:58:19.923Z,99525.63
2022-08-29T07:59:22.246Z,99527.19
2022-08-29T08:00:25.982Z,99523.47
2022-08-29T08:01:29.203Z,99523.34
2022-08-29T08:02:31.726Z,99520.34
2022-08-29T08:03:35.005Z,99520.87
2022-08-29T08:04:37.545Z,99518.33
2022-08-29T08:05:39.803Z,99516.77
2022-08-29T08:06:42.655Z,99512.40
2022-08-29T08:07:45.325Z,99522.02
2022-08-29T08:08:49.628Z,99516.34
2022-08-29T08:09:53.269Z,99518.73
2022-08-29T08:10:56.209Z,99515.89
2022-08-29T08:11:59.385Z,99518.44
2022-08-29T08:13:01.660Z,99520.83
2022-08-29T08:14:03.803Z,99510.89
2022-08-29T08:15:06.929Z,99516.14
2022-08-29T08:16:11.783Z,99519.68
2022-08-29T08:17:14.584Z,99534.05
2022-08-29T08:18:16.939Z,99526.07
2022-08-29T08:19:19.229Z,99537.89
2022-08-29T08:20:23.445Z,99531.62
2022-08-29T08:21:26.436Z,99524.55
2022-08-29T08:22:28.783Z,99529.08
2022-08-29T08:23:31.040Z,99532.80
2022-08-29T08:24:34.424Z,99526.07
2022-08-29T08:25:36.854Z,99527.63
2022-08-29T08:26:39.749Z,99521.95
2022-08-29T08:27:43.365Z,99530.73
2022-08-29T08:28:46.425Z,99527.87
2022-08-29T08:29:48.737Z,99531.30
2022-08-29T08:30:52.241Z,99529.59
2022-08-29T08:31:54.919Z,99526.89
2022-08-29T08:32:57.374Z,99525.89
2022-08-29T08:34:00.284Z,99516.09
2022-08-29T08:35:03.447Z,99517.95
2022-08-29T08:36:17.535Z,99517.55
2022-08-29T08:37:27.934Z,99517.55
2022-08-29T08:38:25.471Z,99519.63
2022-08-29T08:39:27.701Z,99523.20
2022-08-29T08:40:32.142Z,99518.63
2022-08-29T08:41:40.921Z,99526.58
2022-08-29T08:42:44.550Z,99528.97
2022-08-29T08:43:52.435Z,99530.67
2022-08-29T08:46:24.104Z,99529.66
2022-08-29T08:47:29.921Z,99537.78
2022-08-29T08:48:36.494Z,99543.34
2022-08-29T08:49:43.097Z,99541.48
2022-08-29T08:50:55.080Z,99534.09
2022-08-29T08:52:00.120Z,99540.33
2022-08-29T08:54:27.121Z,99530.74
2022-08-29T08:55:38.964Z,99544.31
2022-08-29T08:56:44.884Z,99537.32
2022-08-29T08:57:54.059Z,99554.40
2022-08-29T08:59:15.066Z,99539.03
2022-08-29T09:00:19.080Z,99548.88
2022-08-29T09:01:24.279Z,99537.32
2022-08-29T09:04:16.384Z,99536.30
2022-08-29T09:05:39.453Z,99556.23
2022-08-29T09:07:05.143Z,99542.05
2022-08-29T09:09:44.442Z,99543.25
2022-08-29T09:12:28.779Z,99545.24
2022-08-29T09:14:04.526Z,99535.49
2022-08-29T09:15:11.168Z,99546.30
2022-08-29T09:16:18.339Z,99544.44
2022-08-29T09:17:36.454Z,99551.97
2022-08-29T09:18:42.788Z,99548.59
2022-08-29T09:19:47.262Z,99537.78
2022-08-29T09:20:50.956Z,99540.48
2022-08-29T09:21:56.005Z,99545.73
2022-08-29T09:23:07.222Z,99547.45
2022-08-29T09:24:18.421Z,99544.31
2022-08-29T09:25:23.900Z,99544.88
2022-08-29T09:26:27.005Z,99553.50
2022-08-29T09:27:30.873Z,99546.27
2022-08-29T09:28:33.112Z,99557.07
2022-08-29T09:29:35.948Z,99552.51
2022-08-29T09:30:41.217Z,99574.95
2022-08-29T09:31:43.845Z,99568.72
2022-08-29T09:34:12.320Z,99564.96
2022-08-29T09:35:21.871Z,99547.95
2022-08-29T09:36:47.561Z,99558.75
2022-08-29T09:37:58.657Z,99552.20
2022-08-29T09:39:24.181Z,99554.59
2022-08-29T09:40:42.428Z,99552.76
2022-08-29T09:41:47.465Z,99563.41
2022-08-29T09:42:54.629Z,99543.63
2022-08-29T09:43:56.911Z,99542.63
2022-08-29T09:46:19.720Z,99534.02
2022-08-29T09:47:29.530Z,99534.92
2022-08-29T09:48:35.290Z,99542.20
2022-08-29T09:49:37.206Z,99539.18
2022-08-29T09:50:39.954Z,99550.67
2022-08-29T09:52:59.040Z,99530.38
2022-08-29T09:54:26.964Z,99531.31
2022-08-29T09:55:40.214Z,99530.29
2022-08-29T09:56:51.683Z,99535.53
2022-08-29T09:57:57.444Z,99528.14
2022-08-29T10:01:44.970Z,99530.45
2022-08-29T10:02:52.849Z,99532.39
2022-08-29T10:04:00.400Z,99530.69
2022-08-29T10:05:06.257Z,99534.38
2022-08-29T10:06:22.670Z,99533.23
2022-08-29T10:09:07.801Z,99533.07
2022-08-29T10:11:45.383Z,99526.44
2022-08-29T10:13:09.630Z,99527.51
2022-08-29T10:14:16.059Z,99527.51
2022-08-29T10:15:50.570Z,99532.91
2022-08-29T10:16:59.265Z,99532.08
2022-08-29T10:19:26.722Z,99531.92
2022-08-29T10:20:55.199Z,99532.08
2022-08-29T10:23:39.135Z,99520.43
2022-08-29T10:24:54.122Z,99531.24
2022-08-29T10:25:57.721Z,99531.37
2022-08-29T10:27:11.088Z,99530.53
2022-08-29T10:28:34.427Z,99526.98
2022-08-29T10:29:41.233Z,99522.58
2022-08-29T10:31:11.288Z,99532.39
2022-08-29T10:32:36.623Z,99522.58
2022-08-29T10:35:50.112Z,99520.50
2022-08-29T10:36:55.912Z,99513.47
2022-08-29T10:39:28.764Z,99522.34
2022-08-29T10:40:38.757Z,99516.18
2022-08-29T10:41:50.348Z,99515.31
2022-08-29T10:44:24.651Z,99511.38
2022-08-29T10:47:24.583Z,99524.05
2022-08-29T10:50:07.767Z,99515.94
2022-08-29T10:51:31.052Z,99517.85
2022-08-29T10:52:56.015Z,99511.45
2022-08-29T10:54:26.739Z,99512.16
2022-08-29T10:55:50.477Z,99514.87
2022-08-29T10:58:20.503Z,99510.14
2022-08-29T10:59:26.608Z,99504.73
2022-08-29T11:01:58.669Z,99513.63
2022-08-29T11:03:30.287Z,99520.11
2022-08-29T11:04:38.192Z,99511.14
2022-08-29T11:05:43.779Z,99511.01
2022-08-29T11:06:53.758Z,99513.71
2022-08-29T11:09:42.002Z,99519.95
2022-08-29T11:10:45.426Z,99518.09
2022-08-29T11:13:09.963Z,99516.84
2022-08-29T11:15:43.209Z,99515.85
2022-08-29T11:16:47.917Z,99518.64
2022-08-29T11:18:13.630Z,99522.19
2022-08-29T11:19:35.717Z,99508.51
2022-08-29T11:20:42.345Z,99515.63
2022-08-29T11:23:38.950Z,99514.46
2022-08-29T11:24:45.172Z,99513.63
2022-08-29T11:25:45.218Z,99520.03
2022-08-29T11:27:07.429Z,99511.92
2022-08-29T11:28:31.453Z,99514.63
2022-08-29T11:31:15.763Z,99515.95
2022-08-29T11:32:46.338Z,99515.14
2022-08-29T11:35:35.994Z,99504.14
2022-08-29T11:36:45.118Z,99513.31
2022-08-29T11:38:03.525Z,99517.84
2022-08-29T11:42:07.570Z,99517.72
2022-08-29T11:43:12.693Z,99523.13
2022-08-29T11:45:46.723Z,99520.20
2022-08-29T11:46:56.026Z,99513.86
2022-08-29T11:48:04.885Z,99528.25
2022-08-29T11:50:36.538Z,99509.91
2022-08-29T11:51:38.932Z,99507.13
2022-08-29T11:53:01.815Z,99520.49
2022-08-29T11:54:25.326Z,99528.61
2022-08-29T11:55:33.534Z,99526.61
2022-08-29T11:58:03.853Z,99516.47
2022-08-29T11:59:03.120Z,99517.34
2022-08-29T12:00:09.722Z,99518.18
2022-08-29T12:01:37.711Z,99501.95
2022-08-29T12:02:40.580Z,99501.95
2022-08-29T12:03:44.221Z,99511.77
2022-08-29T12:04:51.809Z,99502.83
2022-08-29T12:05:58.170Z,99509.06
2022-08-29T12:07:01.941Z,99502.66
2022-08-29T12:09:50.086Z,99508.65
2022-08-29T12:12:11.320Z,99506.66
2022-08-29T12:13:15.085Z,99510.30
2022-08-29T12:14:41.649Z,99513.00
2022-08-29T12:15:48.857Z,99504.88
2022-08-29T12:16:51.626Z,99513.83
2022-08-29T12:18:04.649Z,99513.67
2022-08-29T12:19:01.517Z,99501.86
2022-08-29T12:20:16.173Z,99517.24
2022-08-29T12:21:38.608Z,99509.13
2022-08-29T12:23:13.900Z,99503.72
2022-08-29T12:24:31.723Z,99503.72
2022-08-29T12:25:55.181Z,99506.42
2022-08-29T12:26:52.144Z,99501.02
2022-08-29T12:28:00.514Z,99504.72
2022-08-29T12:29:10.565Z,99495.77
2022-08-29T12:30:07.843Z,99503.02
2022-08-29T12:31:20.915Z,99504.88
2022-08-29T12:32:34.706Z,99502.18
2022-08-29T12:34:11.308Z,99494.91
2022-08-29T12:35:39.871Z,99499.31
2022-08-29T12:37:02.451Z,99491.36
2022-08-29T12:38:11.544Z,99501.18
2022-08-29T12:39:27.864Z,99496.77
2022-08-29T12:42:05.730Z,99496.51
2022-08-29T12:43:28.084Z,99494.91
2022-08-29T12:44:41.625Z,99499.47
2022-08-29T12:45:44.924Z,99494.06
2022-08-29T12:46:53.025Z,99497.61
2022-08-29T12:48:01.218Z,99498.48
2022-08-29T12:50:35.262Z,99497.34
2022-08-29T12:51:41.538Z,99495.61
2022-08-29T12:52:44.200Z,99491.20
2022-08-29T12:53:48.352Z,99490.36
2022-08-29T12:54:56.153Z,99485.79
2022-08-29T12:55:57.294Z,99485.79
2022-08-29T12:57:00.284Z,99490.20
2022-08-29T12:58:03.140Z,99478.68
2022-08-29T12:59:06.595Z,99478.68
2022-08-29T13:01:30.694Z,99488.45
2022-08-29T13:02:35.270Z,99486.85
2022-08-29T13:03:37.808Z,99480.44
2022-08-29T13:04:43.297Z,99483.14
2022-08-29T13:05:47.667Z,99493.80
2022-08-29T13:08:13.768Z,99495.23
2022-08-29T13:09:30.723Z,99487.23
2022-08-29T13:10:35.561Z,99488.06
2022-08-29T13:11:37.852Z,99488.77
2022-08-29T13:12:42.519Z,99482.37
2022-08-29T13:13:44.844Z,99477.79
2022-08-29T13:15:07.625Z,99478.47
2022-08-29T13:16:26.088Z,99483.88
2022-08-29T13:17:39.095Z,99486.45
2022-08-29T13:19:00.109Z,99481.72
2022-08-29T13:20:25.078Z,99487.12
2022-08-29T13:21:30.047Z,99483.42
2022-08-29T13:22:33.384Z,99488.66
2022-08-29T13:23:38.485Z,99482.39
2022-08-29T13:24:40.643Z,99483.25
2022-08-29T13:26:02.522Z,99476.84
2022-08-29T13:27:06.233Z,99483.92
2022-08-29T13:28:15.356Z,99484.80
2022-08-29T13:30:35.717Z,99479.22
2022-08-29T13:31:39.795Z,99485.47
2022-08-29T13:34:05.061Z,99475.94
2022-08-29T13:35:28.837Z,99483.47
2022-08-29T13:36:41.430Z,99479.60
2022-08-29T13:37:44.858Z,99480.44
2022-08-29T13:38:49.042Z,99482.98
2022-08-29T13:39:51.384Z,99481.98
2022-08-29T13:40:55.225Z,99481.81
2022-08-29T13:42:04.029Z,99476.40
2022-08-29T13:43:06.521Z,99484.39
2022-08-29T13:45:33.299Z,99473.98
2022-08-29T13:46:36.889Z,99478.81
2022-08-29T13:47:43.462Z,99481.52
2022-08-29T13:48:53.731Z,99476.94
2022-08-29T13:51:09.991Z,99479.52
2022-08-29T13:52:12.427Z,99476.11
2022-08-29T13:53:14.711Z,99477.11
2022-08-29T13:54:17.742Z,99477.11
2022-08-29T13:55:20.358Z,99484.22
2022-08-29T13:56:32.299Z,99485.06
2022-08-29T13:57:33.193Z,99485.92